sensor_id;sensor_type;location;lat;lon;timestamp;P1;durP1;ratioP1;P2;durP2;ratioP2
29302;SDS011;60019;45.556;12.004;2023-01-08T00:04:48;49.63;;;30.90;;
29302;SDS011;60019;45.556;12.004;2023-01-08T00:10:52;51.60;;;32.67;;
29302;SDS011;60019;45.556;12.004;2023-01-08T00:16:55;51.67;;;32.88;;
29302;SDS011;60019;45.556;12.004;2023-01-08T00:22:57;47.92;;;31.02;;
29302;SDS011;60019;45.556;12.004;2023-01-08T00:28:59;45.92;;;29.80;;
29302;SDS011;60019;45.556;12.004;2023-01-08T00:35:01;50.55;;;31.50;;
29302;SDS011;60019;45.556;12.004;2023-01-08T00:41:03;46.65;;;31.10;;
29302;SDS011;60019;45.556;12.004;2023-01-08T00:47:05;50.97;;;32.80;;
29302;SDS011;60019;45.556;12.004;2023-01-08T00:53:07;53.08;;;31.77;;
29302;SDS011;60019;45.556;12.004;2023-01-08T00:59:08;49.72;;;31.42;;
29302;SDS011;60019;45.556;12.004;2023-01-08T01:05:11;53.55;;;32.40;;
29302;SDS011;60019;45.556;12.004;2023-01-08T01:11:17;53.47;;;32.78;;
29302;SDS011;60019;45.556;12.004;2023-01-08T01:17:19;50.75;;;31.33;;
29302;SDS011;60019;45.556;12.004;2023-01-08T01:23:21;48.83;;;31.65;;
29302;SDS011;60019;45.556;12.004;2023-01-08T01:29:23;52.72;;;31.85;;
29302;SDS011;60019;45.556;12.004;2023-01-08T01:35:31;51.97;;;31.75;;
29302;SDS011;60019;45.556;12.004;2023-01-08T01:41:36;50.60;;;32.25;;
29302;SDS011;60019;45.556;12.004;2023-01-08T01:47:39;50.83;;;31.55;;
29302;SDS011;60019;45.556;12.004;2023-01-08T01:53:41;48.60;;;31.65;;
29302;SDS011;60019;45.556;12.004;2023-01-08T01:59:43;50.95;;;32.28;;
29302;SDS011;60019;45.556;12.004;2023-01-08T02:05:57;48.13;;;30.75;;
29302;SDS011;60019;45.556;12.004;2023-01-08T02:12:04;48.28;;;28.75;;
29302;SDS011;60019;45.556;12.004;2023-01-08T02:18:18;53.28;;;31.08;;
29302;SDS011;60019;45.556;12.004;2023-01-08T02:24:42;49.88;;;30.85;;
29302;SDS011;60019;45.556;12.004;2023-01-08T02:30:44;50.72;;;30.20;;
29302;SDS011;60019;45.556;12.004;2023-01-08T02:36:47;47.03;;;29.60;;
29302;SDS011;60019;45.556;12.004;2023-01-08T02:49:09;48.38;;;30.77;;
29302;SDS011;60019;45.556;12.004;2023-01-08T02:55:11;48.22;;;29.60;;
29302;SDS011;60019;45.556;12.004;2023-01-08T03:01:14;48.78;;;30.67;;
29302;SDS011;60019;45.556;12.004;2023-01-08T03:07:16;52.55;;;32.05;;
29302;SDS011;60019;45.556;12.004;2023-01-08T03:13:20;46.08;;;28.40;;
29302;SDS011;60019;45.556;12.004;2023-01-08T03:19:28;50.13;;;29.95;;
29302;SDS011;60019;45.556;12.004;2023-01-08T03:25:32;46.30;;;28.58;;
29302;SDS011;60019;45.556;12.004;2023-01-08T03:31:35;50.85;;;30.05;;
29302;SDS011;60019;45.556;12.004;2023-01-08T03:37:38;49.05;;;29.10;;
29302;SDS011;60019;45.556;12.004;2023-01-08T03:43:41;52.70;;;31.00;;
29302;SDS011;60019;45.556;12.004;2023-01-08T03:49:43;51.25;;;29.40;;
29302;SDS011;60019;45.556;12.004;2023-01-08T03:55:45;48.80;;;29.17;;
29302;SDS011;60019;45.556;12.004;2023-01-08T04:01:47;46.42;;;29.75;;
29302;SDS011;60019;45.556;12.004;2023-01-08T04:07:48;44.40;;;28.88;;
29302;SDS011;60019;45.556;12.004;2023-01-08T04:13:50;48.95;;;28.75;;
29302;SDS011;60019;45.556;12.004;2023-01-08T04:19:55;44.60;;;27.42;;
29302;SDS011;60019;45.556;12.004;2023-01-08T04:25:57;43.75;;;28.38;;
29302;SDS011;60019;45.556;12.004;2023-01-08T04:31:59;46.60;;;29.17;;
29302;SDS011;60019;45.556;12.004;2023-01-08T04:38:01;42.45;;;28.13;;
29302;SDS011;60019;45.556;12.004;2023-01-08T04:44:03;43.50;;;27.70;;
29302;SDS011;60019;45.556;12.004;2023-01-08T04:50:05;41.80;;;26.50;;
29302;SDS011;60019;45.556;12.004;2023-01-08T04:56:07;47.38;;;29.25;;
29302;SDS011;60019;45.556;12.004;2023-01-08T05:02:09;45.60;;;27.95;;
29302;SDS011;60019;45.556;12.004;2023-01-08T05:08:11;49.65;;;28.27;;
29302;SDS011;60019;45.556;12.004;2023-01-08T05:14:13;45.45;;;27.92;;
29302;SDS011;60019;45.556;12.004;2023-01-08T05:20:15;43.53;;;27.88;;
29302;SDS011;60019;45.556;12.004;2023-01-08T05:26:16;40.65;;;26.58;;
29302;SDS011;60019;45.556;12.004;2023-01-08T05:32:19;45.40;;;26.10;;
29302;SDS011;60019;45.556;12.004;2023-01-08T05:38:21;45.05;;;27.23;;
29302;SDS011;60019;45.556;12.004;2023-01-08T05:44:22;45.20;;;27.40;;
29302;SDS011;60019;45.556;12.004;2023-01-08T05:50:24;40.85;;;25.80;;
29302;SDS011;60019;45.556;12.004;2023-01-08T05:56:26;41.25;;;25.60;;
29302;SDS011;60019;45.556;12.004;2023-01-08T06:02:28;41.15;;;26.42;;
29302;SDS011;60019;45.556;12.004;2023-01-08T06:08:30;41.95;;;26.40;;
29302;SDS011;60019;45.556;12.004;2023-01-08T06:14:32;45.30;;;26.35;;
29302;SDS011;60019;45.556;12.004;2023-01-08T06:20:36;44.83;;;27.23;;
29302;SDS011;60019;45.556;12.004;2023-01-08T06:26:38;40.75;;;26.23;;
29302;SDS011;60019;45.556;12.004;2023-01-08T06:32:40;42.70;;;25.90;;
29302;SDS011;60019;45.556;12.004;2023-01-08T06:38:42;42.45;;;25.50;;
29302;SDS011;60019;45.556;12.004;2023-01-08T06:44:43;37.17;;;25.27;;
29302;SDS011;60019;45.556;12.004;2023-01-08T06:50:45;39.25;;;25.75;;
29302;SDS011;60019;45.556;12.004;2023-01-08T06:56:47;42.08;;;25.42;;
29302;SDS011;60019;45.556;12.004;2023-01-08T07:02:49;42.30;;;26.42;;
29302;SDS011;60019;45.556;12.004;2023-01-08T07:08:51;44.50;;;26.80;;
29302;SDS011;60019;45.556;12.004;2023-01-08T07:14:53;44.47;;;27.42;;
29302;SDS011;60019;45.556;12.004;2023-01-08T07:20:55;41.08;;;26.35;;
29302;SDS011;60019;45.556;12.004;2023-01-08T07:26:56;39.88;;;26.52;;
29302;SDS011;60019;45.556;12.004;2023-01-08T07:32:59;45.40;;;26.92;;
29302;SDS011;60019;45.556;12.004;2023-01-08T07:39:01;41.95;;;26.83;;
29302;SDS011;60019;45.556;12.004;2023-01-08T07:45:03;39.65;;;24.55;;
29302;SDS011;60019;45.556;12.004;2023-01-08T07:51:05;38.80;;;26.45;;
29302;SDS011;60019;45.556;12.004;2023-01-08T07:57:07;38.30;;;25.20;;
29302;SDS011;60019;45.556;12.004;2023-01-08T08:03:09;39.67;;;24.80;;
29302;SDS011;60019;45.556;12.004;2023-01-08T08:09:11;36.45;;;23.13;;
29302;SDS011;60019;45.556;12.004;2023-01-08T08:15:13;38.67;;;24.55;;
29302;SDS011;60019;45.556;12.004;2023-01-08T08:21:15;37.30;;;24.85;;
29302;SDS011;60019;45.556;12.004;2023-01-08T08:27:17;36.22;;;24.23;;
29302;SDS011;60019;45.556;12.004;2023-01-08T08:33:19;37.45;;;25.52;;
29302;SDS011;60019;45.556;12.004;2023-01-08T08:39:20;43.88;;;26.27;;
29302;SDS011;60019;45.556;12.004;2023-01-08T08:45:23;43.42;;;25.42;;
29302;SDS011;60019;45.556;12.004;2023-01-08T08:51:25;38.28;;;25.67;;
29302;SDS011;60019;45.556;12.004;2023-01-08T08:57:26;37.30;;;26.20;;
29302;SDS011;60019;45.556;12.004;2023-01-08T09:03:28;41.97;;;26.83;;
29302;SDS011;60019;45.556;12.004;2023-01-08T09:09:30;42.00;;;25.58;;
29302;SDS011;60019;45.556;12.004;2023-01-08T09:15:32;40.70;;;26.23;;
29302;SDS011;60019;45.556;12.004;2023-01-08T09:21:34;37.22;;;25.58;;
29302;SDS011;60019;45.556;12.004;2023-01-08T09:27:36;38.47;;;25.63;;
29302;SDS011;60019;45.556;12.004;2023-01-08T09:33:38;38.80;;;26.30;;
29302;SDS011;60019;45.556;12.004;2023-01-08T09:39:40;40.20;;;27.40;;
29302;SDS011;60019;45.556;12.004;2023-01-08T09:45:42;43.53;;;28.38;;
29302;SDS011;60019;45.556;12.004;2023-01-08T09:51:44;42.22;;;26.73;;
29302;SDS011;60019;45.556;12.004;2023-01-08T09:57:46;43.35;;;26.40;;
29302;SDS011;60019;45.556;12.004;2023-01-08T10:03:59;42.10;;;26.10;;
29302;SDS011;60019;45.556;12.004;2023-01-08T10:10:03;43.58;;;26.23;;
29302;SDS011;60019;45.556;12.004;2023-01-08T10:16:06;38.22;;;23.98;;
29302;SDS011;60019;45.556;12.004;2023-01-08T10:22:14;38.42;;;25.90;;
29302;SDS011;60019;45.556;12.004;2023-01-08T10:28:22;36.75;;;25.02;;
29302;SDS011;60019;45.556;12.004;2023-01-08T10:34:31;79.30;;;48.10;;
29302;SDS011;60019;45.556;12.004;2023-01-08T10:40:40;51.28;;;33.58;;
29302;SDS011;60019;45.556;12.004;2023-01-08T10:46:47;55.35;;;31.67;;
29302;SDS011;60019;45.556;12.004;2023-01-08T10:53:03;49.85;;;31.40;;
29302;SDS011;60019;45.556;12.004;2023-01-08T10:59:16;43.00;;;28.10;;
29302;SDS011;60019;45.556;12.004;2023-01-08T11:05:18;45.88;;;30.02;;
29302;SDS011;60019;45.556;12.004;2023-01-08T11:11:20;63.17;;;38.22;;
29302;SDS011;60019;45.556;12.004;2023-01-08T11:17:25;47.28;;;31.70;;
29302;SDS011;60019;45.556;12.004;2023-01-08T11:23:27;48.17;;;31.50;;
29302;SDS011;60019;45.556;12.004;2023-01-08T11:29:33;46.03;;;29.85;;
29302;SDS011;60019;45.556;12.004;2023-01-08T11:35:40;51.75;;;32.75;;
29302;SDS011;60019;45.556;12.004;2023-01-08T12:00:27;51.45;;;34.42;;
29302;SDS011;60019;45.556;12.004;2023-01-08T12:07:16;50.70;;;33.60;;
29302;SDS011;60019;45.556;12.004;2023-01-08T12:37:49;192.82;;;78.47;;
29302;SDS011;60019;45.556;12.004;2023-01-08T12:56:41;94.63;;;47.35;;
29302;SDS011;60019;45.556;12.004;2023-01-08T13:02:58;71.13;;;41.15;;
29302;SDS011;60019;45.556;12.004;2023-01-08T13:09:00;62.00;;;38.75;;
29302;SDS011;60019;45.556;12.004;2023-01-08T13:15:03;56.58;;;35.55;;
29302;SDS011;60019;45.556;12.004;2023-01-08T13:21:06;55.35;;;33.08;;
29302;SDS011;60019;45.556;12.004;2023-01-08T13:33:25;53.15;;;34.38;;
29302;SDS011;60019;45.556;12.004;2023-01-08T13:39:31;54.95;;;33.08;;
29302;SDS011;60019;45.556;12.004;2023-01-08T13:45:33;56.90;;;36.53;;
29302;SDS011;60019;45.556;12.004;2023-01-08T13:51:40;66.57;;;36.60;;
29302;SDS011;60019;45.556;12.004;2023-01-08T13:57:44;56.67;;;34.88;;
29302;SDS011;60019;45.556;12.004;2023-01-08T14:03:47;52.05;;;32.15;;
29302;SDS011;60019;45.556;12.004;2023-01-08T14:09:49;53.00;;;32.63;;
29302;SDS011;60019;45.556;12.004;2023-01-08T14:15:51;54.17;;;32.47;;
29302;SDS011;60019;45.556;12.004;2023-01-08T14:21:56;51.30;;;32.63;;
29302;SDS011;60019;45.556;12.004;2023-01-08T14:28:02;50.22;;;31.67;;
29302;SDS011;60019;45.556;12.004;2023-01-08T14:34:04;46.72;;;31.25;;
29302;SDS011;60019;45.556;12.004;2023-01-08T14:40:13;47.60;;;29.15;;
29302;SDS011;60019;45.556;12.004;2023-01-08T14:46:23;51.38;;;31.58;;
29302;SDS011;60019;45.556;12.004;2023-01-08T14:52:26;53.05;;;33.30;;
29302;SDS011;60019;45.556;12.004;2023-01-08T14:58:28;47.00;;;30.42;;
29302;SDS011;60019;45.556;12.004;2023-01-08T15:04:35;51.42;;;31.65;;
29302;SDS011;60019;45.556;12.004;2023-01-08T15:10:40;47.47;;;30.75;;
29302;SDS011;60019;45.556;12.004;2023-01-08T15:16:42;44.03;;;29.10;;
29302;SDS011;60019;45.556;12.004;2023-01-08T15:22:44;45.58;;;28.40;;
29302;SDS011;60019;45.556;12.004;2023-01-08T15:28:54;52.50;;;31.63;;
29302;SDS011;60019;45.556;12.004;2023-01-08T15:34:56;47.13;;;31.20;;
29302;SDS011;60019;45.556;12.004;2023-01-08T15:40:58;48.70;;;29.17;;
29302;SDS011;60019;45.556;12.004;2023-01-08T15:47:00;53.50;;;30.60;;
29302;SDS011;60019;45.556;12.004;2023-01-08T15:53:06;50.25;;;31.27;;
29302;SDS011;60019;45.556;12.004;2023-01-08T15:59:08;56.25;;;35.97;;
29302;SDS011;60019;45.556;12.004;2023-01-08T16:05:11;52.00;;;31.73;;
29302;SDS011;60019;45.556;12.004;2023-01-08T16:11:12;47.15;;;31.15;;
29302;SDS011;60019;45.556;12.004;2023-01-08T16:17:14;61.47;;;39.65;;
29302;SDS011;60019;45.556;12.004;2023-01-08T16:23:16;57.47;;;36.67;;
29302;SDS011;60019;45.556;12.004;2023-01-08T16:29:19;56.75;;;37.17;;
29302;SDS011;60019;45.556;12.004;2023-01-08T16:35:21;60.00;;;37.08;;
29302;SDS011;60019;45.556;12.004;2023-01-08T16:41:23;54.58;;;35.45;;
29302;SDS011;60019;45.556;12.004;2023-01-08T16:47:25;58.05;;;36.45;;
29302;SDS011;60019;45.556;12.004;2023-01-08T16:53:26;50.60;;;33.70;;
29302;SDS011;60019;45.556;12.004;2023-01-08T16:59:28;53.25;;;33.60;;
29302;SDS011;60019;45.556;12.004;2023-01-08T17:05:34;48.10;;;30.63;;
29302;SDS011;60019;45.556;12.004;2023-01-08T17:11:36;50.22;;;32.55;;
29302;SDS011;60019;45.556;12.004;2023-01-08T17:17:38;71.63;;;45.50;;
29302;SDS011;60019;45.556;12.004;2023-01-08T17:23:40;72.70;;;41.13;;
29302;SDS011;60019;45.556;12.004;2023-01-08T17:29:42;52.97;;;35.85;;
29302;SDS011;60019;45.556;12.004;2023-01-08T17:35:44;65.40;;;38.70;;
29302;SDS011;60019;45.556;12.004;2023-01-08T17:41:46;50.72;;;33.30;;
29302;SDS011;60019;45.556;12.004;2023-01-08T17:48:06;50.80;;;30.27;;
29302;SDS011;60019;45.556;12.004;2023-01-08T17:54:09;44.83;;;28.40;;
29302;SDS011;60019;45.556;12.004;2023-01-08T18:00:11;53.22;;;30.75;;
29302;SDS011;60019;45.556;12.004;2023-01-08T18:06:13;44.15;;;30.38;;
29302;SDS011;60019;45.556;12.004;2023-01-08T18:12:15;43.88;;;27.88;;
29302;SDS011;60019;45.556;12.004;2023-01-08T18:18:17;48.83;;;29.85;;
29302;SDS011;60019;45.556;12.004;2023-01-08T18:24:19;41.80;;;27.98;;
29302;SDS011;60019;45.556;12.004;2023-01-08T18:30:21;40.30;;;27.02;;
29302;SDS011;60019;45.556;12.004;2023-01-08T18:36:23;44.00;;;27.33;;
29302;SDS011;60019;45.556;12.004;2023-01-08T18:42:24;40.95;;;26.05;;
29302;SDS011;60019;45.556;12.004;2023-01-08T18:48:27;41.00;;;24.58;;
29302;SDS011;60019;45.556;12.004;2023-01-08T18:54:28;55.10;;;34.97;;
29302;SDS011;60019;45.556;12.004;2023-01-08T19:00:30;93.97;;;50.25;;
29302;SDS011;60019;45.556;12.004;2023-01-08T19:06:32;85.25;;;48.85;;
29302;SDS011;60019;45.556;12.004;2023-01-08T19:12:34;72.03;;;40.72;;
29302;SDS011;60019;45.556;12.004;2023-01-08T19:18:36;58.97;;;35.38;;
29302;SDS011;60019;45.556;12.004;2023-01-08T19:24:38;51.60;;;30.95;;
29302;SDS011;60019;45.556;12.004;2023-01-08T19:30:40;46.78;;;29.60;;
29302;SDS011;60019;45.556;12.004;2023-01-08T19:36:42;40.45;;;26.17;;
29302;SDS011;60019;45.556;12.004;2023-01-08T19:42:44;39.17;;;25.67;;
29302;SDS011;60019;45.556;12.004;2023-01-08T19:55:06;50.58;;;28.00;;
29302;SDS011;60019;45.556;12.004;2023-01-08T20:01:09;50.53;;;28.35;;
29302;SDS011;60019;45.556;12.004;2023-01-08T20:07:11;44.47;;;26.63;;
29302;SDS011;60019;45.556;12.004;2023-01-08T20:13:13;33.72;;;22.70;;
29302;SDS011;60019;45.556;12.004;2023-01-08T20:19:15;33.05;;;22.13;;
29302;SDS011;60019;45.556;12.004;2023-01-08T20:25:17;35.13;;;21.98;;
29302;SDS011;60019;45.556;12.004;2023-01-08T20:31:20;32.13;;;19.38;;
29302;SDS011;60019;45.556;12.004;2023-01-08T20:37:22;29.52;;;19.55;;
29302;SDS011;60019;45.556;12.004;2023-01-08T20:43:24;25.85;;;17.98;;
29302;SDS011;60019;45.556;12.004;2023-01-08T20:49:26;28.05;;;17.83;;
29302;SDS011;60019;45.556;12.004;2023-01-08T20:55:29;24.95;;;16.10;;
29302;SDS011;60019;45.556;12.004;2023-01-08T21:01:31;21.65;;;15.40;;
29302;SDS011;60019;45.556;12.004;2023-01-08T21:07:33;22.48;;;14.95;;
29302;SDS011;60019;45.556;12.004;2023-01-08T21:13:35;18.92;;;13.02;;
29302;SDS011;60019;45.556;12.004;2023-01-08T21:19:39;21.02;;;12.93;;
29302;SDS011;60019;45.556;12.004;2023-01-08T21:25:44;15.52;;;12.02;;
29302;SDS011;60019;45.556;12.004;2023-01-08T21:31:46;16.17;;;11.55;;
29302;SDS011;60019;45.556;12.004;2023-01-08T21:37:48;15.52;;;11.75;;
29302;SDS011;60019;45.556;12.004;2023-01-08T21:43:50;12.43;;;9.43;;
29302;SDS011;60019;45.556;12.004;2023-01-08T21:50:10;12.20;;;9.02;;
29302;SDS011;60019;45.556;12.004;2023-01-08T21:56:12;11.13;;;7.80;;
29302;SDS011;60019;45.556;12.004;2023-01-08T22:02:16;10.70;;;8.07;;
29302;SDS011;60019;45.556;12.004;2023-01-08T22:08:18;11.55;;;8.27;;
29302;SDS011;60019;45.556;12.004;2023-01-08T22:14:20;8.77;;;7.57;;
29302;SDS011;60019;45.556;12.004;2023-01-08T22:20:22;9.18;;;6.57;;
29302;SDS011;60019;45.556;12.004;2023-01-08T22:26:23;8.77;;;7.05;;
29302;SDS011;60019;45.556;12.004;2023-01-08T22:32:25;10.07;;;7.65;;
29302;SDS011;60019;45.556;12.004;2023-01-08T22:38:27;21.90;;;13.90;;
29302;SDS011;60019;45.556;12.004;2023-01-08T22:44:29;88.28;;;41.60;;
29302;SDS011;60019;45.556;12.004;2023-01-08T22:50:31;74.18;;;36.55;;
29302;SDS011;60019;45.556;12.004;2023-01-08T22:56:33;55.42;;;28.17;;
29302;SDS011;60019;45.556;12.004;2023-01-08T23:02:35;39.17;;;19.67;;
29302;SDS011;60019;45.556;12.004;2023-01-08T23:08:38;31.23;;;16.75;;
29302;SDS011;60019;45.556;12.004;2023-01-08T23:14:40;24.92;;;14.10;;
29302;SDS011;60019;45.556;12.004;2023-01-08T23:20:42;18.23;;;11.43;;
29302;SDS011;60019;45.556;12.004;2023-01-08T23:26:44;16.98;;;10.38;;
29302;SDS011;60019;45.556;12.004;2023-01-08T23:32:46;16.10;;;9.75;;
29302;SDS011;60019;45.556;12.004;2023-01-08T23:38:48;13.00;;;8.05;;
29302;SDS011;60019;45.556;12.004;2023-01-08T23:44:51;11.70;;;7.20;;
29302;SDS011;60019;45.556;12.004;2023-01-08T23:50:52;10.70;;;6.95;;
29302;SDS011;60019;45.556;12.004;2023-01-08T23:56:54;9.52;;;6.78;;
